Dawson, Canada
Current Conditions -  °F | °C
As of 4:00 PM on Monday 20 Oct 2014 (Local Time) from CYDA Reporting Station
Rain Showers Rain Showers  
Wind Chill: 32°   Ceiling: 2500
Heat Index: 32°   Visibility: 15mi
Dew Point: 30°   Wind: 0mph
Humidity: 93%   Direction: NA
Pressure: 29.17"   Gusts: NA
Location:  64.05°N, 139.13°W
Report Text: CYDA 202300Z 00000KT 15SM VCSH FEW003 BKN025 OVC030 00/M01 A2917 RMK SF1SC5SC2 CLIMAT 0.0/-1.9/0.0/TR CM/TR MWE LAST OBS/NEXT 211400 UTC SLP899
Loading
Personal Weather Stations






























Interactive Weather Map
Tropical Storm Tracking
New forecast layout! Learn more

10-Day Weather Forecast

Advertisements
Track Severe Weather on mobile